createdAt,value
2022-07-25T00:02:02.900Z,23.50
2022-07-25T00:04:31.344Z,23.50
2022-07-25T00:07:01.015Z,23.40
2022-07-25T00:09:28.948Z,23.40
2022-07-25T00:11:56.821Z,23.30
2022-07-25T00:14:24.673Z,23.30
2022-07-25T00:16:52.522Z,23.20
2022-07-25T00:19:20.404Z,23.20
2022-07-25T00:21:48.346Z,23.20
2022-07-25T00:24:17.524Z,23.20
2022-07-25T00:26:45.342Z,23.20
2022-07-25T00:29:13.199Z,23.20
2022-07-25T00:31:41.109Z,23.20
2022-07-25T00:34:09.516Z,23.20
2022-07-25T00:36:37.768Z,23.00
2022-07-25T00:39:06.023Z,23.00
2022-07-25T00:41:35.225Z,22.90
2022-07-25T00:44:03.347Z,22.90
2022-07-25T00:46:31.412Z,22.90
2022-07-25T00:48:59.352Z,22.80
2022-07-25T00:51:27.307Z,22.80
2022-07-25T00:53:55.408Z,22.70
2022-07-25T00:56:23.277Z,22.70
2022-07-25T00:58:52.483Z,22.70
2022-07-25T01:01:20.397Z,22.70
2022-07-25T01:03:48.338Z,22.70
2022-07-25T01:06:16.215Z,22.60
2022-07-25T01:08:44.193Z,22.70
2022-07-25T01:11:12.787Z,22.60
2022-07-25T01:13:40.658Z,22.50
2022-07-25T01:16:10.023Z,22.50
2022-07-25T01:18:38.474Z,22.50
2022-07-25T01:21:07.780Z,22.50
2022-07-25T01:23:35.617Z,22.40
2022-07-25T01:26:03.618Z,22.40
2022-07-25T01:28:31.451Z,22.40
2022-07-25T01:30:59.459Z,22.40
2022-07-25T01:33:27.440Z,22.40
2022-07-25T01:35:55.239Z,22.30
2022-07-25T01:38:24.506Z,22.40
2022-07-25T01:40:52.333Z,22.30
2022-07-25T01:43:20.287Z,22.40
2022-07-25T01:45:48.245Z,22.30
2022-07-25T01:48:16.109Z,22.30
2022-07-25T01:50:44.785Z,22.30
2022-07-25T01:53:12.673Z,22.30
2022-07-25T01:55:41.881Z,22.30
2022-07-25T01:58:10.693Z,22.30
2022-07-25T02:00:38.730Z,22.30
2022-07-25T02:03:23.719Z,22.30
2022-07-25T02:05:51.594Z,22.30
2022-07-25T02:08:19.444Z,22.30
2022-07-25T02:10:48.691Z,22.30
2022-07-25T02:13:16.528Z,22.30
2022-07-25T02:15:44.323Z,22.30
2022-07-25T02:18:12.394Z,22.30
2022-07-25T02:20:40.194Z,22.30
2022-07-25T02:23:08.036Z,22.30
2022-07-25T02:25:36.310Z,22.30
2022-07-25T02:28:05.794Z,22.30
2022-07-25T02:30:33.760Z,22.30
2022-07-25T02:33:01.661Z,22.30
2022-07-25T02:35:29.530Z,22.30
2022-07-25T02:37:57.352Z,22.30
2022-07-25T02:40:25.226Z,22.30
2022-07-25T02:42:53.043Z,22.30
2022-07-25T02:45:22.329Z,22.30
2022-07-25T02:47:50.207Z,22.20
2022-07-25T02:50:18.061Z,21.90
2022-07-25T02:52:45.910Z,21.90
2022-07-25T02:55:13.742Z,21.80
2022-07-25T02:57:41.611Z,21.80
2022-07-25T03:00:10.243Z,21.90
2022-07-25T03:02:39.457Z,21.90
2022-07-25T03:05:08.330Z,22.00
2022-07-25T03:07:36.421Z,21.90
2022-07-25T03:10:11.297Z,21.80
2022-07-25T03:12:39.779Z,21.80
2022-07-25T03:15:08.097Z,21.90
2022-07-25T03:17:36.175Z,21.80
2022-07-25T03:20:05.763Z,21.70
2022-07-25T03:22:33.654Z,21.70
2022-07-25T03:25:01.554Z,21.70
2022-07-25T03:27:29.391Z,21.80
2022-07-25T03:29:58.272Z,21.80
2022-07-25T03:32:26.106Z,21.80
2022-07-25T03:34:54.028Z,21.80
2022-07-25T03:37:23.250Z,21.70
2022-07-25T03:39:51.108Z,21.70
2022-07-25T03:42:22.404Z,21.70
2022-07-25T03:44:52.984Z,21.70
2022-07-25T03:47:21.057Z,21.70
2022-07-25T03:49:48.924Z,21.80
2022-07-25T03:52:16.769Z,21.80
2022-07-25T03:54:45.940Z,21.80
2022-07-25T03:57:13.812Z,21.80
2022-07-25T03:59:41.657Z,21.80
2022-07-25T04:02:09.613Z,21.70
2022-07-25T04:04:37.577Z,21.70
2022-07-25T04:07:05.378Z,21.70
2022-07-25T04:09:33.764Z,21.70
2022-07-25T04:12:04.292Z,21.70
2022-07-25T04:14:32.252Z,21.80
2022-07-25T04:17:00.125Z,21.80
2022-07-25T04:19:28.850Z,21.80
2022-07-25T04:21:56.885Z,21.80
2022-07-25T04:24:24.706Z,21.80
2022-07-25T04:26:52.603Z,21.80
2022-07-25T04:29:21.808Z,21.80
2022-07-25T04:31:49.718Z,21.90
2022-07-25T04:34:17.714Z,21.80
2022-07-25T04:36:45.584Z,21.80
2022-07-25T04:39:13.481Z,21.80
2022-07-25T04:41:41.314Z,21.80
2022-07-25T04:44:09.543Z,21.80
2022-07-25T04:46:39.009Z,21.80
2022-07-25T04:49:06.872Z,21.80
2022-07-25T04:51:34.745Z,21.90
2022-07-25T04:54:02.708Z,21.90
2022-07-25T04:56:30.630Z,21.90
2022-07-25T04:59:03.163Z,21.90
2022-07-25T05:01:34.657Z,22.00
2022-07-25T05:04:04.551Z,22.00
2022-07-25T05:06:33.192Z,22.00
2022-07-25T05:09:01.079Z,22.00
2022-07-25T05:11:28.918Z,22.10
2022-07-25T05:13:56.769Z,22.00
2022-07-25T05:16:26.697Z,22.00
2022-07-25T05:18:54.560Z,22.00
2022-07-25T05:21:23.746Z,22.00
2022-07-25T05:23:51.603Z,22.10
2022-07-25T05:26:19.456Z,22.10
2022-07-25T05:28:47.298Z,22.00
2022-07-25T05:31:15.145Z,22.00
2022-07-25T05:33:44.091Z,22.10
2022-07-25T05:36:11.923Z,22.10
2022-07-25T05:38:41.117Z,22.10
2022-07-25T05:41:09.289Z,22.00
2022-07-25T05:43:37.137Z,22.00
2022-07-25T05:46:05.349Z,22.10
2022-07-25T05:48:33.328Z,22.20
2022-07-25T05:51:01.186Z,22.10
2022-07-25T05:53:29.140Z,22.20
2022-07-25T05:55:58.316Z,22.20
2022-07-25T05:58:29.708Z,22.10
2022-07-25T06:00:58.159Z,22.20
2022-07-25T06:03:26.116Z,22.40
2022-07-25T06:05:55.770Z,22.20
2022-07-25T06:08:23.983Z,22.30
2022-07-25T06:10:52.779Z,22.50
2022-07-25T06:13:22.000Z,22.40
2022-07-25T06:15:51.489Z,22.50
2022-07-25T06:18:19.489Z,22.40
2022-07-25T06:20:47.368Z,22.50
2022-07-25T06:23:15.329Z,22.70
2022-07-25T06:25:43.174Z,22.60
2022-07-25T06:28:18.203Z,22.70
2022-07-25T06:30:48.203Z,22.80
2022-07-25T06:33:16.096Z,22.80
2022-07-25T06:35:43.944Z,22.70
2022-07-25T06:38:11.800Z,22.60
2022-07-25T06:40:39.636Z,22.70
2022-07-25T06:43:07.900Z,22.70
2022-07-25T06:45:35.863Z,22.60
2022-07-25T06:48:05.370Z,22.70
2022-07-25T06:50:33.214Z,22.70
2022-07-25T06:53:01.056Z,22.50
2022-07-25T06:55:28.950Z,22.50
2022-07-25T06:57:56.794Z,22.30
2022-07-25T07:00:24.766Z,22.60
2022-07-25T07:02:53.543Z,22.80
2022-07-25T07:05:23.150Z,23.30
2022-07-25T07:07:51.219Z,23.30
2022-07-25T07:10:19.516Z,23.40
2022-07-25T07:12:47.472Z,23.40
2022-07-25T07:15:15.425Z,23.60
2022-07-25T07:17:43.255Z,23.90
2022-07-25T07:20:11.933Z,24.30
2022-07-25T07:22:47.913Z,24.70
2022-07-25T07:25:15.999Z,24.80
2022-07-25T07:27:44.457Z,25.20
2022-07-25T07:30:14.789Z,25.30
2022-07-25T07:32:42.747Z,24.90
2022-07-25T07:35:11.269Z,24.80
2022-07-25T07:37:43.399Z,24.90
2022-07-25T07:40:17.209Z,25.30
2022-07-25T07:42:47.814Z,25.50
2022-07-25T07:45:17.137Z,25.20
2022-07-25T07:47:46.853Z,25.30
2022-07-25T07:50:15.715Z,24.90
2022-07-25T07:52:43.810Z,25.40
2022-07-25T07:55:30.698Z,25.40
2022-07-25T07:57:59.542Z,26.00
2022-07-25T08:00:29.122Z,25.60
2022-07-25T08:02:57.108Z,25.90
2022-07-25T08:05:25.906Z,26.30
2022-07-25T08:07:54.450Z,26.40
2022-07-25T08:10:25.041Z,26.70
2022-07-25T08:12:52.936Z,26.40
2022-07-25T08:15:21.706Z,26.20
2022-07-25T08:17:50.332Z,25.90
2022-07-25T08:20:36.926Z,26.00
2022-07-25T08:23:06.145Z,26.40
2022-07-25T08:25:36.200Z,26.90
2022-07-25T08:28:06.325Z,27.20
2022-07-25T08:30:34.357Z,27.60
2022-07-25T08:33:03.905Z,27.70
2022-07-25T08:35:32.497Z,27.70
2022-07-25T08:38:00.786Z,27.40
2022-07-25T08:40:29.284Z,27.40
2022-07-25T08:42:59.333Z,27.30
2022-07-25T08:45:28.593Z,27.80
2022-07-25T08:47:57.435Z,28.20
2022-07-25T08:50:26.209Z,28.60
2022-07-25T08:53:09.972Z,28.20
2022-07-25T08:55:43.583Z,27.90
2022-07-25T08:58:14.241Z,28.10
2022-07-25T09:00:42.430Z,28.20
2022-07-25T09:03:10.457Z,28.20
2022-07-25T09:05:38.630Z,28.50
2022-07-25T09:08:10.272Z,29.20
2022-07-25T09:10:39.288Z,29.20
2022-07-25T09:13:10.498Z,29.60
2022-07-25T09:15:45.169Z,29.80
2022-07-25T09:18:15.980Z,29.80
2022-07-25T09:20:45.926Z,30.50
2022-07-25T09:23:14.587Z,29.60
2022-07-25T09:25:42.730Z,29.60
2022-07-25T09:28:14.215Z,29.90
2022-07-25T09:30:54.952Z,30.00
2022-07-25T09:33:23.179Z,30.30
2022-07-25T09:35:51.302Z,30.30
2022-07-25T09:38:19.530Z,30.40
2022-07-25T09:40:57.262Z,29.90
2022-07-25T09:43:25.282Z,29.40
2022-07-25T09:45:54.563Z,30.00
2022-07-25T09:48:22.471Z,29.70
2022-07-25T09:50:51.147Z,30.30
2022-07-25T09:53:20.056Z,30.20
2022-07-25T09:55:47.950Z,29.70
2022-07-25T09:58:15.833Z,30.30
2022-07-25T10:00:43.762Z,30.50
2022-07-25T10:03:18.193Z,29.50
2022-07-25T10:06:02.707Z,29.40
2022-07-25T10:08:30.999Z,29.90
2022-07-25T10:10:58.896Z,29.50
2022-07-25T10:13:31.070Z,29.40
2022-07-25T10:15:59.158Z,29.00
2022-07-25T10:18:29.046Z,29.00
2022-07-25T10:20:57.804Z,30.10
2022-07-25T10:23:28.000Z,29.80
2022-07-25T10:26:08.494Z,30.40
2022-07-25T10:28:37.592Z,30.10
2022-07-25T10:31:15.272Z,30.00
2022-07-25T10:33:44.598Z,29.50
2022-07-25T10:36:12.642Z,29.90
2022-07-25T10:38:41.501Z,30.40
2022-07-25T10:41:10.497Z,30.00
2022-07-25T10:43:38.883Z,29.80
2022-07-25T10:46:12.272Z,30.30
2022-07-25T10:48:40.259Z,30.20
2022-07-25T10:51:10.418Z,29.60
2022-07-25T10:53:39.469Z,29.60
2022-07-25T10:56:09.078Z,29.20
2022-07-25T10:58:43.951Z,29.00
2022-07-25T11:01:13.707Z,28.30
2022-07-25T11:03:42.383Z,28.70
2022-07-25T11:06:11.701Z,28.80
2022-07-25T11:08:42.077Z,28.70
2022-07-25T11:11:10.086Z,28.90
2022-07-25T11:13:38.392Z,28.50
2022-07-25T11:16:06.741Z,28.50
2022-07-25T11:18:38.465Z,28.60
2022-07-25T11:21:07.311Z,28.60
2022-07-25T11:23:36.889Z,28.30
2022-07-25T11:26:05.694Z,28.60
2022-07-25T11:28:40.537Z,28.00
2022-07-25T11:31:08.443Z,27.60
2022-07-25T11:33:38.902Z,27.30
2022-07-25T11:36:07.314Z,27.20
2022-07-25T11:38:39.067Z,27.40
2022-07-25T11:41:07.277Z,27.30
2022-07-25T11:43:35.229Z,27.00
2022-07-25T11:46:04.397Z,27.00
2022-07-25T11:48:33.971Z,26.60
2022-07-25T11:51:16.277Z,26.30
2022-07-25T11:53:49.652Z,26.10
2022-07-25T11:56:41.354Z,26.00
2022-07-25T11:59:07.492Z,26.30
2022-07-25T12:01:36.580Z,26.40
2022-07-25T12:04:11.477Z,26.20
2022-07-25T12:06:40.216Z,26.00
2022-07-25T12:09:19.316Z,26.00
2022-07-25T12:11:48.264Z,25.90
2022-07-25T12:14:16.280Z,25.70
2022-07-25T12:16:44.297Z,25.40
2022-07-25T12:19:19.306Z,25.40
2022-07-25T12:21:47.170Z,25.40
2022-07-25T12:24:16.448Z,25.40
2022-07-25T12:26:44.306Z,25.60
2022-07-25T12:29:12.155Z,25.50
2022-07-25T12:31:40.034Z,25.80
2022-07-25T12:34:07.864Z,26.30
2022-07-25T12:36:41.192Z,26.60
2022-07-25T12:39:09.558Z,27.30
2022-07-25T12:41:40.054Z,27.90
2022-07-25T12:44:07.934Z,28.20
2022-07-25T12:46:36.091Z,28.30
2022-07-25T12:49:04.292Z,28.00
2022-07-25T12:51:32.422Z,27.70
2022-07-25T12:54:00.264Z,27.70
2022-07-25T12:56:28.170Z,27.90
2022-07-25T12:58:57.397Z,27.50
2022-07-25T13:01:25.328Z,27.80
2022-07-25T13:03:53.302Z,28.50
2022-07-25T13:06:21.246Z,28.40
2022-07-25T13:08:49.085Z,28.70
2022-07-25T13:11:17.016Z,28.30
2022-07-25T13:13:44.859Z,29.30
2022-07-25T13:16:14.327Z,28.90
2022-07-25T13:18:44.319Z,28.90
2022-07-25T13:21:12.219Z,28.30
2022-07-25T13:23:40.125Z,27.30
2022-07-25T13:26:08.157Z,27.50
2022-07-25T13:28:36.191Z,27.40
2022-07-25T13:31:06.962Z,27.60
2022-07-25T13:33:36.273Z,27.70
2022-07-25T13:36:04.375Z,28.50
2022-07-25T13:38:34.660Z,28.50
2022-07-25T13:41:02.857Z,28.10
2022-07-25T13:43:30.712Z,27.80
2022-07-25T13:45:58.643Z,28.00
2022-07-25T13:48:30.002Z,28.20
2022-07-25T13:51:00.557Z,28.10
2022-07-25T13:53:30.503Z,27.40
2022-07-25T13:55:59.400Z,27.70
2022-07-25T13:58:27.281Z,27.70
2022-07-25T14:00:55.285Z,27.50
2022-07-25T14:03:23.221Z,27.50
2022-07-25T14:05:51.112Z,27.50
2022-07-25T14:08:20.356Z,27.20
2022-07-25T14:10:48.215Z,27.00
2022-07-25T14:13:16.058Z,27.00
2022-07-25T14:15:44.941Z,27.80
2022-07-25T14:18:12.815Z,28.60
2022-07-25T14:20:40.678Z,28.20
2022-07-25T14:23:08.596Z,27.80
2022-07-25T14:25:38.947Z,28.40
2022-07-25T14:28:06.811Z,28.00
2022-07-25T14:30:34.697Z,28.30
2022-07-25T14:33:02.542Z,27.90
2022-07-25T14:35:32.541Z,28.10
2022-07-25T14:38:00.796Z,27.90
2022-07-25T14:40:28.718Z,28.20
2022-07-25T14:42:57.959Z,28.10
2022-07-25T14:45:25.819Z,28.80
2022-07-25T14:47:54.005Z,29.20
2022-07-25T14:50:22.010Z,28.70
2022-07-25T14:52:49.839Z,29.30
2022-07-25T14:55:18.787Z,29.40
2022-07-25T14:57:46.629Z,29.20
2022-07-25T15:00:16.396Z,28.40
2022-07-25T15:02:44.236Z,28.80
2022-07-25T15:05:12.148Z,29.50
2022-07-25T15:07:40.020Z,28.90
2022-07-25T15:10:08.444Z,28.00
2022-07-25T15:12:36.419Z,28.40
2022-07-25T15:15:04.592Z,28.80
2022-07-25T15:17:33.873Z,28.10
2022-07-25T15:20:01.979Z,27.90
2022-07-25T15:22:30.444Z,28.50
2022-07-25T15:25:29.791Z,28.60
2022-07-25T15:27:46.180Z,28.60
2022-07-25T15:30:14.020Z,28.30
2022-07-25T15:32:43.225Z,28.40
2022-07-25T15:35:11.107Z,28.90
2022-07-25T15:37:38.987Z,29.00
2022-07-25T15:40:07.372Z,29.30
2022-07-25T15:42:35.268Z,28.20
2022-07-25T15:45:31.367Z,28.20
2022-07-25T15:47:52.429Z,28.20
2022-07-25T15:50:20.449Z,28.10
2022-07-25T15:52:48.331Z,27.90
2022-07-25T15:55:16.200Z,28.40
2022-07-25T15:57:44.091Z,27.80
2022-07-25T16:00:12.396Z,27.70
2022-07-25T16:02:40.236Z,27.90
2022-07-25T16:05:10.101Z,27.50
2022-07-25T16:07:37.997Z,27.40
2022-07-25T16:10:06.321Z,27.70
2022-07-25T16:12:34.189Z,28.00
2022-07-25T16:15:02.122Z,27.20
2022-07-25T16:17:30.019Z,27.20
2022-07-25T16:19:57.886Z,27.20
2022-07-25T16:22:27.646Z,27.30
2022-07-25T16:24:55.478Z,27.70
2022-07-25T16:27:23.319Z,27.70
2022-07-25T16:29:51.215Z,27.70
2022-07-25T16:32:19.105Z,27.40
2022-07-25T16:34:47.425Z,27.80
2022-07-25T16:37:15.281Z,27.30
2022-07-25T16:39:44.527Z,27.30
2022-07-25T16:42:12.353Z,27.20
2022-07-25T16:44:40.213Z,27.00
2022-07-25T16:47:08.695Z,26.60
2022-07-25T16:49:36.903Z,26.20
2022-07-25T16:52:04.803Z,26.30
2022-07-25T16:54:34.348Z,26.00
2022-07-25T16:57:03.638Z,25.80
2022-07-25T16:59:31.486Z,25.60
2022-07-25T17:01:59.419Z,25.70
2022-07-25T17:04:27.365Z,25.60
2022-07-25T17:06:55.345Z,25.50
2022-07-25T17:09:23.190Z,25.50
2022-07-25T17:11:51.045Z,25.50
2022-07-25T17:14:20.303Z,25.40
2022-07-25T17:16:48.162Z,25.40
2022-07-25T17:19:16.001Z,25.40
2022-07-25T17:21:43.983Z,25.50
2022-07-25T17:24:11.837Z,25.40
2022-07-25T17:26:39.714Z,25.30
2022-07-25T17:29:08.351Z,25.30
2022-07-25T17:31:37.985Z,25.50
2022-07-25T17:34:05.883Z,24.90
2022-07-25T17:36:33.738Z,25.10
2022-07-25T17:39:01.980Z,24.80
2022-07-25T17:41:29.909Z,24.80
2022-07-25T17:43:57.727Z,24.70
2022-07-25T17:46:25.664Z,24.60
2022-07-25T17:48:55.035Z,24.80
2022-07-25T17:51:22.943Z,24.90
2022-07-25T17:53:50.817Z,24.80
2022-07-25T17:56:18.722Z,24.90
2022-07-25T17:58:46.576Z,24.80
2022-07-25T18:01:14.545Z,24.70
2022-07-25T18:03:42.834Z,24.90
2022-07-25T18:06:12.390Z,24.60
2022-07-25T18:08:40.385Z,24.30
2022-07-25T18:11:08.415Z,24.20
2022-07-25T18:13:36.322Z,24.30
2022-07-25T18:16:04.778Z,24.10
2022-07-25T18:18:33.113Z,24.10
2022-07-25T18:21:01.207Z,24.20
2022-07-25T18:23:30.718Z,24.00
2022-07-25T18:25:58.561Z,23.70
2022-07-25T18:28:26.414Z,23.70
2022-07-25T18:30:55.065Z,23.90
2022-07-25T18:33:22.992Z,23.70
2022-07-25T18:35:51.243Z,23.70
2022-07-25T18:38:19.148Z,23.60
2022-07-25T18:40:49.622Z,23.60
2022-07-25T18:43:22.295Z,23.30
2022-07-25T18:45:50.839Z,23.40
2022-07-25T18:48:18.723Z,23.50
2022-07-25T18:50:46.558Z,23.50
2022-07-25T18:53:14.434Z,23.60
2022-07-25T18:55:42.316Z,23.60
2022-07-25T18:58:15.917Z,23.60
2022-07-25T19:00:44.090Z,23.40
2022-07-25T19:03:11.975Z,23.40
2022-07-25T19:05:40.029Z,23.50
2022-07-25T19:08:08.012Z,23.20
2022-07-25T19:10:35.922Z,23.30
2022-07-25T19:13:04.034Z,23.30
2022-07-25T19:15:34.190Z,23.10
2022-07-25T19:18:03.888Z,23.00
2022-07-25T19:20:31.716Z,22.70
2022-07-25T19:22:59.978Z,22.70
2022-07-25T19:25:27.877Z,22.70
2022-07-25T19:27:55.724Z,22.70
2022-07-25T19:30:23.555Z,22.50
2022-07-25T19:32:52.754Z,22.40
2022-07-25T19:35:25.845Z,22.50
2022-07-25T19:37:54.142Z,22.50
2022-07-25T19:40:22.146Z,22.50
2022-07-25T19:42:49.998Z,22.50
2022-07-25T19:45:17.862Z,22.30
2022-07-25T19:47:45.750Z,22.20
2022-07-25T19:50:15.034Z,22.10
2022-07-25T19:52:42.892Z,22.20
2022-07-25T19:55:11.033Z,22.20
2022-07-25T19:57:38.912Z,22.30
2022-07-25T20:00:07.481Z,22.20
2022-07-25T20:02:35.396Z,22.20
2022-07-25T20:05:03.320Z,21.90
2022-07-25T20:07:32.601Z,22.10
2022-07-25T20:10:00.511Z,22.00
2022-07-25T20:12:28.496Z,21.90
2022-07-25T20:14:56.522Z,21.80
2022-07-25T20:17:24.398Z,21.80
2022-07-25T20:19:52.834Z,21.70
2022-07-25T20:22:20.754Z,21.60
2022-07-25T20:24:49.959Z,21.80
2022-07-25T20:27:17.909Z,21.90
2022-07-25T20:29:45.770Z,21.80
2022-07-25T20:32:13.622Z,21.70
2022-07-25T20:34:41.556Z,21.80
2022-07-25T20:37:09.377Z,21.70
2022-07-25T20:39:37.225Z,21.70
2022-07-25T20:42:07.855Z,21.50
2022-07-25T20:44:35.688Z,21.60
2022-07-25T20:47:03.560Z,21.50
2022-07-25T20:49:31.452Z,21.40
2022-07-25T20:51:59.321Z,21.40
2022-07-25T20:54:27.207Z,21.40
2022-07-25T20:56:55.093Z,21.40
2022-07-25T20:59:24.291Z,21.20
2022-07-25T21:01:53.255Z,21.30
2022-07-25T21:04:21.188Z,21.30
2022-07-25T21:06:49.023Z,21.20
2022-07-25T21:09:16.949Z,21.20
2022-07-25T21:11:44.903Z,21.30
2022-07-25T21:14:13.297Z,21.30
2022-07-25T21:16:42.550Z,21.30
2022-07-25T21:19:10.834Z,21.00
2022-07-25T21:21:39.062Z,21.00
2022-07-25T21:24:07.459Z,20.90
2022-07-25T21:26:37.046Z,20.80
2022-07-25T21:29:05.153Z,20.90
2022-07-25T21:31:33.365Z,20.90
2022-07-25T21:34:02.585Z,20.80
2022-07-25T21:36:30.937Z,20.80
2022-07-25T21:38:58.796Z,20.80
2022-07-25T21:41:26.674Z,20.70
2022-07-25T21:43:54.542Z,20.70
2022-07-25T21:46:22.512Z,20.60
2022-07-25T21:49:08.224Z,20.60
2022-07-25T21:51:40.419Z,20.60
2022-07-25T21:54:09.081Z,20.60
2022-07-25T21:56:36.967Z,20.60
2022-07-25T21:59:05.397Z,20.60
2022-07-25T22:01:33.696Z,20.60
2022-07-25T22:04:01.662Z,20.40
2022-07-25T22:06:29.517Z,20.50
2022-07-25T22:08:58.769Z,20.40
2022-07-25T22:11:42.336Z,20.30
2022-07-25T22:14:13.719Z,20.50
2022-07-25T22:16:41.888Z,20.40
2022-07-25T22:19:10.268Z,20.20
2022-07-25T22:21:38.389Z,20.10
2022-07-25T22:24:07.933Z,20.20
2022-07-25T22:26:35.827Z,20.20
2022-07-25T22:29:03.788Z,20.10
2022-07-25T22:31:31.698Z,20.10
2022-07-25T22:33:59.560Z,20.20
2022-07-25T22:36:27.383Z,20.00
2022-07-25T22:38:55.659Z,20.00
2022-07-25T22:41:24.906Z,20.00
2022-07-25T22:43:57.530Z,19.90
2022-07-25T22:46:27.366Z,20.00
2022-07-25T22:48:55.312Z,19.90
2022-07-25T22:51:24.055Z,19.80
2022-07-25T22:53:51.900Z,19.90
2022-07-25T22:56:20.251Z,20.00
2022-07-25T22:58:49.584Z,19.80
2022-07-25T23:01:17.534Z,19.80
2022-07-25T23:03:45.656Z,19.80
2022-07-25T23:06:14.114Z,19.70
2022-07-25T23:08:41.980Z,19.80
2022-07-25T23:11:09.789Z,19.60
2022-07-25T23:13:37.742Z,19.80
2022-07-25T23:16:10.430Z,19.80
2022-07-25T23:18:38.632Z,19.70
2022-07-25T23:21:06.511Z,19.70
2022-07-25T23:23:34.377Z,19.60
2022-07-25T23:26:02.437Z,19.60
2022-07-25T23:28:30.410Z,19.50
2022-07-25T23:30:58.260Z,19.50
2022-07-25T23:33:27.455Z,19.50
2022-07-25T23:35:55.449Z,19.50
2022-07-25T23:38:23.785Z,19.50
2022-07-25T23:40:54.074Z,19.50
2022-07-25T23:43:29.878Z,19.50
2022-07-25T23:46:09.760Z,19.60
2022-07-25T23:48:40.986Z,19.40
2022-07-25T23:51:08.944Z,19.40
2022-07-25T23:53:37.113Z,19.30
2022-07-25T23:56:05.212Z,19.20
2022-07-25T23:58:33.053Z,19.20
